Time;durP1;ratioP1;P1;durP2;ratioP2;P2;SDS_P1;SDS_P2;PMS_P1;PMS_P2;Temp;Humidity;BMP_temperature;BMP_pressure;BME280_temperature;BME280_humidity;BME280_pressure;Samples;Min_cycle;Max_cycle;Signal;HPM_P1;HPM_P2
2024/04/17 00:01:42;;;;;;;3.22;0.80;;;18.10;61.20;;;;;;5418079;26;20257;-79
2024/04/17 00:04:08;;;;;;;1.73;0.68;;;18.10;61.40;;;;;;5417881;26;20254;-80
2024/04/17 00:06:35;;;;;;;4.43;0.88;;;18.10;61.20;;;;;;5387159;26;20257;-79
2024/04/17 00:09:01;;;;;;;2.50;0.80;;;18.20;61.30;;;;;;5417829;26;20261;-79
2024/04/17 00:11:26;;;;;;;2.42;0.85;;;18.10;61.40;;;;;;5357349;26;20227;-79
2024/04/17 00:13:52;;;;;;;4.72;0.90;;;18.10;61.30;;;;;;5386828;26;20323;-79
2024/04/17 00:16:18;;;;;;;3.70;0.77;;;18.10;61.10;;;;;;5417658;26;20693;-79
2024/04/17 00:18:44;;;;;;;1.42;0.73;;;18.10;61.20;;;;;;5386402;26;20266;-79
2024/04/17 00:21:10;;;;;;;2.83;0.60;;;18.10;61.30;;;;;;5418000;26;20411;-79
2024/04/17 00:23:35;;;;;;;3.78;0.90;;;18.10;61.60;;;;;;5417669;26;20741;-79
2024/04/17 00:26:05;;;;;;;5.68;0.90;;;18.10;61.50;;;;;;5417634;26;20266;-79
2024/04/17 00:28:31;;;;;;;4.50;1.08;;;18.10;61.40;;;;;;5356285;26;20261;-80
2024/04/17 00:30:58;;;;;;;1.45;0.60;;;18.10;61.50;;;;;;5386135;26;20219;-79
2024/04/17 00:33:25;;;;;;;1.13;0.80;;;18.10;60.80;;;;;;5386021;26;20218;-80
2024/04/17 00:35:51;;;;;;;2.00;0.70;;;18.20;61.20;;;;;;5416349;26;20270;-79
2024/04/17 00:38:17;;;;;;;2.58;0.70;;;18.10;61.20;;;;;;5417261;26;20211;-79
2024/04/17 00:40:43;;;;;;;4.10;0.80;;;18.10;61.40;;;;;;5417292;26;20215;-79
2024/04/17 00:43:09;;;;;;;2.63;0.82;;;18.10;61.40;;;;;;5417323;26;20215;-79
2024/04/17 00:45:39;;;;;;;2.55;0.85;;;18.10;61.40;;;;;;5417191;26;20613;-79
2024/04/17 00:48:09;;;;;;;2.55;0.82;;;18.10;61.40;;;;;;5356429;26;20245;-79
2024/04/17 00:50:35;;;;;;;2.05;0.77;;;18.10;61.30;;;;;;5417088;26;20253;-80
2024/04/17 00:53:01;;;;;;;1.77;0.73;;;18.10;61.40;;;;;;5385754;26;20694;-79
2024/04/17 00:55:27;;;;;;;2.80;0.70;;;18.10;61.30;;;;;;5384645;26;20249;-79
2024/04/17 00:57:53;;;;;;;1.95;0.55;;;18.10;61.40;;;;;;5357427;26;20674;-79
2024/04/17 01:00:18;;;;;;;2.97;0.80;;;18.10;61.10;;;;;;5360601;26;20219;-79
2024/04/17 01:02:44;;;;;;;3.08;0.70;;;18.10;61.30;;;;;;5390878;26;20215;-79
2024/04/17 01:05:10;;;;;;;2.65;0.88;;;18.10;61.20;;;;;;5390793;26;20219;-79
2024/04/17 01:07:36;;;;;;;2.28;0.80;;;18.00;61.40;;;;;;5360684;26;20693;-79
2024/04/17 01:10:01;;;;;;;2.42;0.80;;;18.10;61.50;;;;;;5390669;26;20324;-79
2024/04/17 01:12:27;;;;;;;1.90;0.82;;;18.00;61.80;;;;;;5390766;26;20309;-79
2024/04/17 01:15:38;;;;;;;3.15;0.80;;;18.00;61.50;;;;;;5421529;26;20569;-80
2024/04/17 01:18:04;;;;;;;3.10;0.88;;;18.00;61.40;;;;;;5420201;26;20218;-79
2024/04/17 01:20:30;;;;;;;2.85;0.70;;;18.00;61.50;;;;;;5420062;26;20215;-79
2024/04/17 01:22:56;;;;;;;2.03;0.88;;;18.00;61.60;;;;;;5388651;26;20219;-79
2024/04/17 01:25:23;;;;;;;2.55;0.80;;;18.10;61.60;;;;;;5388667;26;20219;-80
2024/04/17 01:27:48;;;;;;;1.80;0.70;;;18.10;61.60;;;;;;5388810;26;20273;-80
2024/04/17 01:30:14;;;;;;;3.00;1.13;;;18.00;61.50;;;;;;5419956;26;20216;-79
2024/04/17 01:32:42;;;;;;;1.15;0.65;;;18.10;61.60;;;;;;5388566;26;20249;-79
2024/04/17 01:35:07;;;;;;;2.65;0.80;;;18.00;61.50;;;;;;5388649;26;20219;-79
2024/04/17 01:37:33;;;;;;;2.40;0.70;;;18.00;61.60;;;;;;5420751;26;20308;-79
2024/04/17 01:39:58;;;;;;;2.80;0.60;;;18.00;61.70;;;;;;5390038;26;20544;-79
2024/04/17 01:42:24;;;;;;;2.40;0.80;;;18.00;61.50;;;;;;5420890;26;20219;-79
2024/04/17 01:44:51;;;;;;;2.40;0.80;;;18.00;61.50;;;;;;5420595;26;20577;-79
2024/04/17 01:47:16;;;;;;;1.58;0.80;;;18.00;61.50;;;;;;5389438;26;20250;-79
2024/04/17 01:49:42;;;;;;;2.40;0.68;;;18.00;61.50;;;;;;5420845;26;20223;-79
2024/04/17 01:52:08;;;;;;;3.03;0.80;;;18.00;61.40;;;;;;5390014;26;20249;-79
2024/04/17 01:54:33;;;;;;;2.83;0.90;;;18.00;61.50;;;;;;5388588;26;20239;-79
2024/04/17 01:57:01;;;;;;;1.33;0.65;;;18.00;61.50;;;;;;5419938;26;20223;-80
2024/04/17 01:59:27;;;;;;;1.27;0.60;;;18.00;61.70;;;;;;5420356;26;20224;-79
2024/04/17 02:01:52;;;;;;;2.38;0.90;;;18.00;61.50;;;;;;5420466;26;20324;-79
2024/04/17 02:04:18;;;;;;;2.35;0.70;;;18.00;61.40;;;;;;5359667;26;20231;-79
2024/04/17 02:06:46;;;;;;;3.30;1.10;;;18.00;61.80;;;;;;5388987;26;20269;-79
2024/04/17 02:09:11;;;;;;;2.28;0.60;;;18.00;61.40;;;;;;5419720;26;20324;-79
2024/04/17 02:11:37;;;;;;;2.60;0.90;;;18.00;61.80;;;;;;5420109;26;20231;-80
2024/04/17 02:14:05;;;;;;;0.95;0.75;;;17.90;61.80;;;;;;5389046;26;20327;-79
2024/04/17 02:16:30;;;;;;;2.42;0.88;;;18.00;61.60;;;;;;5420091;26;20215;-79
2024/04/17 02:18:56;;;;;;;2.58;0.80;;;18.00;61.70;;;;;;5388763;26;20227;-79
2024/04/17 02:21:22;;;;;;;4.28;0.70;;;18.00;61.40;;;;;;5420240;26;20324;-79
2024/04/17 02:23:47;;;;;;;1.35;0.60;;;18.00;61.80;;;;;;5420184;26;20213;-79
2024/04/17 02:26:13;;;;;;;2.47;0.90;;;17.90;61.50;;;;;;5388725;26;20262;-80
2024/04/17 02:28:39;;;;;;;1.27;0.70;;;17.90;61.60;;;;;;5419996;26;20219;-79
2024/04/17 02:31:04;;;;;;;1.38;0.73;;;17.90;61.80;;;;;;5419888;26;20219;-79
2024/04/17 02:33:30;;;;;;;2.67;0.80;;;18.00;61.90;;;;;;5420511;26;20575;-79
2024/04/17 02:35:56;;;;;;;1.50;0.80;;;17.90;61.70;;;;;;5419231;26;20349;-80
2024/04/17 02:38:23;;;;;;;3.35;0.90;;;18.00;61.50;;;;;;5359305;26;20227;-80
2024/04/17 02:40:49;;;;;;;1.55;0.80;;;17.90;61.70;;;;;;5388458;26;20758;-79
2024/04/17 02:43:15;;;;;;;1.65;0.65;;;17.90;61.40;;;;;;5419705;26;20293;-79
2024/04/17 02:45:40;;;;;;;1.92;0.90;;;17.90;61.70;;;;;;5388669;26;20219;-79
2024/04/17 02:48:07;;;;;;;1.25;0.77;;;17.90;61.60;;;;;;5359097;26;20246;-79
2024/04/17 02:50:37;;;;;;;1.60;0.70;;;17.90;61.50;;;;;;5419566;26;20350;-79
2024/04/17 02:53:04;;;;;;;1.33;0.75;;;17.90;61.70;;;;;;5388185;26;20211;-79
2024/04/17 02:55:32;;;;;;;2.67;1.00;;;18.00;61.40;;;;;;5387278;26;20717;-79
2024/04/17 02:57:58;;;;;;;1.83;0.75;;;17.90;61.60;;;;;;5419702;26;20215;-79
2024/04/17 03:00:25;;;;;;;2.10;0.73;;;17.90;61.60;;;;;;5419694;26;20277;-79
2024/04/17 03:02:51;;;;;;;3.28;0.70;;;17.90;61.60;;;;;;5389470;26;20245;-79
2024/04/17 03:05:17;;;;;;;3.20;1.00;;;17.90;61.60;;;;;;5389736;26;20211;-79
2024/04/17 03:07:44;;;;;;;1.10;0.60;;;17.90;61.60;;;;;;5389417;26;20215;-79
2024/04/17 03:10:10;;;;;;;1.80;0.82;;;17.90;61.40;;;;;;5420089;26;20223;-79
2024/04/17 03:12:37;;;;;;;1.27;0.73;;;17.90;61.50;;;;;;5420044;26;20254;-79
2024/04/17 03:15:04;;;;;;;0.82;0.80;;;18.00;61.50;;;;;;5389148;26;20257;-79
2024/04/17 03:17:30;;;;;;;1.48;0.75;;;17.90;61.50;;;;;;5389072;26;20298;-80
2024/04/17 03:19:57;;;;;;;1.67;0.85;;;17.90;61.60;;;;;;5388626;26;20383;-79
2024/04/17 03:22:22;;;;;;;1.15;0.80;;;17.90;61.40;;;;;;5419844;26;20223;-79
2024/04/17 03:24:50;;;;;;;1.58;0.75;;;17.90;61.30;;;;;;5359947;26;20311;-79
2024/04/17 03:27:17;;;;;;;1.17;0.77;;;17.90;61.60;;;;;;5389171;26;20699;-79
2024/04/17 03:29:43;;;;;;;0.85;0.60;;;17.90;61.70;;;;;;5389396;26;20312;-79
2024/04/17 03:32:09;;;;;;;1.73;0.90;;;17.90;61.70;;;;;;5391329;26;20223;-79
2024/04/17 03:34:35;;;;;;;1.85;0.85;;;17.90;61.60;;;;;;5392275;26;20219;-79
2024/04/17 03:37:01;;;;;;;1.65;0.75;;;17.90;61.80;;;;;;5392790;26;20293;-79
2024/04/17 03:39:27;;;;;;;3.15;0.75;;;17.90;61.70;;;;;;5423855;26;20281;-79
2024/04/17 03:41:53;;;;;;;0.57;0.52;;;17.90;61.80;;;;;;5423476;26;20211;-79
2024/04/17 03:44:18;;;;;;;1.55;0.77;;;17.90;61.80;;;;;;5423193;26;20261;-79
2024/04/17 03:46:45;;;;;;;1.83;0.85;;;17.90;61.50;;;;;;5362874;26;20231;-79
2024/04/17 03:49:12;;;;;;;2.13;0.70;;;17.90;61.90;;;;;;5423948;26;20258;-79
2024/04/17 03:51:37;;;;;;;0.70;0.60;;;17.80;61.80;;;;;;5423429;26;20288;-79
2024/04/17 03:54:03;;;;;;;2.47;0.80;;;17.80;61.70;;;;;;5363186;26;20223;-79
2024/04/17 03:56:29;;;;;;;2.05;0.70;;;17.90;61.70;;;;;;5391113;26;20223;-79
2024/04/17 03:58:55;;;;;;;2.80;0.82;;;17.80;61.90;;;;;;5388862;26;20324;-79
2024/04/17 04:01:20;;;;;;;3.22;1.00;;;17.90;62.00;;;;;;5388468;26;20674;-79
2024/04/17 04:03:48;;;;;;;3.22;0.90;;;17.90;62.40;;;;;;5420028;26;20242;-80
2024/04/17 04:06:13;;;;;;;1.50;0.75;;;17.90;61.70;;;;;;5359760;26;20253;-79
2024/04/17 04:08:39;;;;;;;1.10;0.80;;;17.90;61.70;;;;;;5388461;26;20592;-79
2024/04/17 04:11:05;;;;;;;2.88;0.70;;;17.80;61.90;;;;;;5388074;26;20694;-79
2024/04/17 04:13:31;;;;;;;1.17;0.80;;;17.80;61.70;;;;;;5420356;26;20219;-80
2024/04/17 04:15:58;;;;;;;2.45;1.00;;;17.90;62.00;;;;;;5358758;26;20227;-80
2024/04/17 04:18:24;;;;;;;2.40;0.80;;;17.80;61.80;;;;;;5419811;26;20215;-79
2024/04/17 04:20:50;;;;;;;2.78;0.80;;;17.80;61.80;;;;;;5388497;26;20245;-79
2024/04/17 04:23:16;;;;;;;1.42;0.70;;;17.80;61.70;;;;;;5388505;26;20278;-79
2024/04/17 04:25:41;;;;;;;3.10;1.00;;;17.80;62.00;;;;;;5419186;26;20311;-79
2024/04/17 04:28:07;;;;;;;1.25;0.70;;;17.80;62.10;;;;;;5387993;26;20318;-79
2024/04/17 04:30:40;;;;;;;2.35;0.85;;;17.90;61.90;;;;;;5387819;26;20235;-79
2024/04/17 04:33:11;;;;;;;1.80;0.85;;;17.80;61.70;;;;;;5359398;26;20694;-79
2024/04/17 04:35:37;;;;;;;2.72;0.73;;;17.80;61.80;;;;;;5356951;26;20788;-79
2024/04/17 04:38:03;;;;;;;1.33;0.82;;;17.80;62.00;;;;;;5388153;26;20223;-79
2024/04/17 04:40:29;;;;;;;1.48;0.77;;;17.80;61.70;;;;;;5387616;26;20219;-79
2024/04/17 04:42:54;;;;;;;1.40;0.68;;;17.80;61.90;;;;;;5418793;26;20261;-79
2024/04/17 04:45:22;;;;;;;1.33;0.90;;;17.80;61.80;;;;;;5387852;26;20219;-79
2024/04/17 04:47:48;;;;;;;1.40;0.70;;;17.90;61.90;;;;;;5418879;26;20257;-79
2024/04/17 04:50:14;;;;;;;1.92;0.90;;;17.90;61.70;;;;;;5418967;26;20557;-79
2024/04/17 04:52:40;;;;;;;3.08;0.75;;;17.90;61.60;;;;;;5418644;26;20712;-79
2024/04/17 04:55:06;;;;;;;1.65;0.80;;;17.80;61.50;;;;;;5357093;26;20239;-79
2024/04/17 04:57:31;;;;;;;3.05;1.10;;;17.80;61.70;;;;;;5387370;26;20246;-79
2024/04/17 04:59:57;;;;;;;2.08;1.10;;;17.80;61.60;;;;;;5387256;26;20323;-79
2024/04/17 05:02:23;;;;;;;2.00;0.88;;;17.90;61.80;;;;;;5430275;26;20757;-79
2024/04/17 05:04:49;;;;;;;2.55;0.90;;;17.80;61.70;;;;;;5423625;26;20701;-79
2024/04/17 05:07:16;;;;;;;1.58;0.57;;;17.90;61.80;;;;;;5455083;26;20257;-79
2024/04/17 05:09:41;;;;;;;3.05;1.00;;;17.80;62.00;;;;;;5455968;26;20273;-79
2024/04/17 05:12:09;;;;;;;1.40;0.73;;;17.80;61.90;;;;;;5454952;26;20335;-79
2024/04/17 05:14:35;;;;;;;1.80;0.90;;;17.80;61.70;;;;;;5424162;26;20222;-79
2024/04/17 05:17:01;;;;;;;3.00;0.90;;;17.90;61.80;;;;;;5422219;26;20306;-79
2024/04/17 05:19:28;;;;;;;1.73;0.88;;;17.80;61.70;;;;;;5453402;26;20210;-79
2024/04/17 05:21:55;;;;;;;1.63;0.90;;;17.90;62.10;;;;;;5422082;26;20273;-79
2024/04/17 05:24:20;;;;;;;1.27;0.80;;;17.80;61.90;;;;;;5453380;26;20311;-79
2024/04/17 05:26:46;;;;;;;1.48;0.80;;;17.80;61.70;;;;;;5453663;26;20607;-79
2024/04/17 05:29:13;;;;;;;1.75;0.80;;;17.80;61.90;;;;;;5422081;26;20265;-79
2024/04/17 05:31:41;;;;;;;1.23;0.80;;;17.80;61.80;;;;;;5421908;26;20554;-79
2024/04/17 05:34:07;;;;;;;2.15;0.70;;;17.80;62.00;;;;;;5453456;26;20576;-79
2024/04/17 05:36:33;;;;;;;2.70;0.95;;;17.80;62.10;;;;;;5452833;26;20689;-79
2024/04/17 05:38:59;;;;;;;1.98;0.80;;;17.80;62.00;;;;;;5452889;26;20541;-79
2024/04/17 05:41:25;;;;;;;2.28;1.00;;;17.80;62.10;;;;;;5453524;26;20330;-79
2024/04/17 05:43:51;;;;;;;4.88;0.80;;;17.80;62.10;;;;;;5423059;26;20226;-79
2024/04/17 05:46:17;;;;;;;1.77;0.90;;;17.80;62.00;;;;;;5425331;26;20703;-79
2024/04/17 05:48:42;;;;;;;1.45;0.70;;;17.70;62.10;;;;;;5426029;26;20746;-79
2024/04/17 05:51:09;;;;;;;1.08;0.75;;;17.70;61.80;;;;;;5458321;26;20579;-79
2024/04/17 05:53:36;;;;;;;1.95;0.80;;;17.80;61.70;;;;;;5458343;26;20222;-79
2024/04/17 05:56:02;;;;;;;0.90;0.75;;;17.80;62.00;;;;;;5457597;26;20260;-79
2024/04/17 05:58:33;;;;;;;1.55;0.80;;;17.80;62.10;;;;;;5396318;26;20673;-79
2024/04/17 06:00:59;;;;;;;2.75;0.88;;;17.80;61.80;;;;;;5460200;26;20277;-79
2024/04/17 06:03:26;;;;;;;1.70;0.80;;;17.80;61.90;;;;;;5428181;26;20655;-79
2024/04/17 06:05:52;;;;;;;1.70;0.73;;;17.80;61.70;;;;;;5428170;26;20293;-79
2024/04/17 06:08:17;;;;;;;1.75;1.10;;;17.80;61.80;;;;;;5459380;26;20214;-80
2024/04/17 06:10:43;;;;;;;3.63;1.10;;;17.70;61.70;;;;;;5460009;26;20670;-79
2024/04/17 06:13:10;;;;;;;1.70;0.80;;;17.80;61.40;;;;;;5461046;26;20260;-79
2024/04/17 06:15:48;;;;;;;2.53;0.90;;;17.80;61.60;;;;;;5460199;26;20261;-79
2024/04/17 06:18:24;;;;;;;1.17;0.85;;;17.80;61.10;;;;;;5401315;26;20249;-81
2024/04/17 11:24:57;;;;;;;2.00;0.80;;;18.80;57.20;;;;;;5943468;21;20263;-85
2024/04/17 11:27:23;;;;;;;1.35;0.85;;;18.80;56.80;;;;;;5324717;26;20235;-83
2024/04/17 11:30:02;;;;;;;2.90;1.00;;;18.80;57.00;;;;;;5354063;26;20345;-82
2024/04/17 11:32:34;;;;;;;0.70;0.52;;;18.80;57.10;;;;;;5342115;26;20260;-82
2024/04/17 11:35:19;;;;;;;1.00;0.70;;;18.70;57.20;;;;;;5261603;26;20227;-85
2024/04/17 11:41:22;;;;;;;0.98;0.73;;;18.80;56.40;;;;;;5309949;27;20317;-84
2024/04/17 11:43:54;;;;;;;1.40;0.80;;;18.80;57.00;;;;;;5245854;27;20270;-85
2024/04/17 11:46:23;;;;;;;0.85;0.68;;;18.80;57.20;;;;;;5207915;27;20227;-84
2024/04/17 11:51:27;;;;;;;0.88;0.80;;;18.80;57.40;;;;;;5534187;21;20299;-84
2024/04/17 11:53:56;;;;;;;1.75;0.80;;;18.70;56.80;;;;;;5275973;27;20226;-85
2024/04/17 11:56:41;;;;;;;1.17;0.73;;;18.80;57.10;;;;;;5206706;27;20431;-86
2024/04/17 11:59:18;;;;;;;1.65;0.70;;;18.80;56.90;;;;;;5198849;27;20282;-86
2024/04/17 12:01:53;;;;;;;1.08;0.70;;;18.70;56.90;;;;;;5128464;27;20343;-86
2024/04/17 12:08:02;;;;;;;1.25;0.70;;;18.80;56.60;;;;;;4966175;29;20286;-86
2024/04/17 12:10:28;;;;;;;0.93;0.60;;;18.70;57.00;;;;;;4935156;29;20276;-85
2024/04/17 12:13:38;;;;;;;0.90;0.80;;;18.70;56.90;;;;;;4964404;29;20338;-86
2024/04/17 12:16:40;;;;;;;3.05;0.68;;;18.70;56.50;;;;;;4939332;29;20238;-86
2024/04/17 12:18:58;;;;;;;1.20;0.65;;;18.70;56.90;;;;;;4964158;29;20319;-85
2024/04/17 12:21:37;;;;;;;2.63;0.80;;;18.70;56.50;;;;;;4940571;29;20234;-86
2024/04/17 12:26:49;;;;;;;1.63;0.75;;;18.70;56.90;;;;;;4935244;29;20277;-86
2024/04/17 12:27:26;;;;;;;;;;;;;;;;;;;;;
2024/04/17 12:29:58;;;;;;;1.25;0.80;;;18.70;56.60;;;;;;4881482;29;20243;-87
2024/04/17 12:32:41;;;;;;;;;;;;;;;;;;;;;
2024/04/17 12:35:14;;;;;;;1.42;0.80;;;18.70;56.10;;;;;;4917679;29;20635;-85
2024/04/17 12:38:40;;;;;;;;;;;;;;;;;;;;;
2024/04/17 12:41:31;;;;;;;;;;;;;;;;;;;;;
2024/04/17 12:44:25;;;;;;;2.95;0.70;;;18.70;56.60;;;;;;4777550;29;20317;-86
2024/04/17 12:47:14;;;;;;;0.95;0.70;;;18.70;56.40;;;;;;4796845;29;20243;-85
2024/04/17 12:49:43;;;;;;;2.55;1.33;;;18.80;56.10;;;;;;4790454;29;20253;-84
2024/04/17 12:52:16;;;;;;;1.45;0.75;;;18.80;56.40;;;;;;4812712;29;20251;-85
2024/04/17 12:54:47;;;;;;;1.85;0.90;;;18.80;56.10;;;;;;4798602;29;20403;-85
2024/04/17 12:57:22;;;;;;;1.10;0.80;;;18.80;56.60;;;;;;4757312;30;20280;-85
2024/04/17 12:59:51;;;;;;;2.22;0.80;;;18.70;56.50;;;;;;4768762;30;20287;-84
2024/04/17 13:02:20;;;;;;;2.20;0.80;;;18.80;55.80;;;;;;4794962;30;20323;-83
2024/04/17 13:04:46;;;;;;;2.33;0.77;;;18.80;56.40;;;;;;4769290;30;20257;-84
2024/04/17 13:07:14;;;;;;;3.08;1.15;;;18.80;56.40;;;;;;4792434;30;20281;-84
2024/04/17 13:09:50;;;;;;;2.63;0.70;;;18.70;56.60;;;;;;4775317;30;20264;-84
2024/04/17 13:12:47;;;;;;;1.02;0.73;;;18.60;56.60;;;;;;4796049;30;20270;-84
2024/04/17 13:15:18;;;;;;;2.47;0.57;;;18.60;56.30;;;;;;4768624;30;20898;-84
2024/04/17 13:17:44;;;;;;;1.63;0.60;;;18.70;55.90;;;;;;4796970;29;20339;-84
2024/04/17 13:20:20;;;;;;;3.70;0.70;;;18.70;56.40;;;;;;4766306;30;20265;-84
2024/04/17 13:22:51;;;;;;;0.68;0.60;;;18.70;56.70;;;;;;4756624;29;20311;-84
2024/04/17 13:25:19;;;;;;;1.88;0.63;;;18.70;56.60;;;;;;4926020;28;20245;-84
2024/04/17 13:27:48;;;;;;;1.30;0.55;;;18.70;56.50;;;;;;4971226;28;20327;-84
2024/04/17 13:30:23;;;;;;;0.90;0.60;;;18.70;56.10;;;;;;4973555;28;20233;-85
2024/04/17 13:32:54;;;;;;;1.92;0.77;;;18.70;56.60;;;;;;4967757;29;20342;-83
2024/04/17 13:35:22;;;;;;;0.95;0.60;;;18.70;56.60;;;;;;5018562;28;20335;-84
2024/04/17 13:37:58;;;;;;;0.60;0.60;;;18.70;55.50;;;;;;5036415;28;20294;-84
2024/04/17 13:40:33;;;;;;;2.67;0.80;;;18.80;55.80;;;;;;5029898;28;20283;-84
2024/04/17 13:43:00;;;;;;;1.50;0.88;;;18.80;55.80;;;;;;5160081;27;20286;-84
2024/04/17 13:45:32;;;;;;;0.77;0.60;;;18.70;56.50;;;;;;5208016;27;20258;-84
2024/04/17 13:48:00;;;;;;;0.73;0.70;;;18.70;56.30;;;;;;5233549;27;20433;-84
2024/04/17 13:50:31;;;;;;;2.50;0.80;;;18.70;56.40;;;;;;5316540;27;20235;-84
2024/04/17 13:53:01;;;;;;;2.53;0.80;;;18.70;56.00;;;;;;5230077;27;20271;-85
2024/04/17 13:55:34;;;;;;;4.57;0.80;;;18.80;56.00;;;;;;5230079;27;20553;-85
2024/04/17 13:58:02;;;;;;;5.28;1.20;;;18.70;56.10;;;;;;5289784;27;20266;-84
2024/04/17 14:00:31;;;;;;;3.47;1.02;;;18.70;56.00;;;;;;5234535;27;20245;-84
2024/04/17 14:02:58;;;;;;;4.72;1.15;;;18.70;55.20;;;;;;5282335;27;20236;-83
2024/04/17 14:05:33;;;;;;;1.88;0.80;;;18.80;55.50;;;;;;5227434;27;20224;-83
2024/04/17 14:08:08;;;;;;;4.35;1.30;;;18.80;55.90;;;;;;5230761;27;20237;-83
2024/04/17 14:10:36;;;;;;;4.82;1.00;;;18.80;56.30;;;;;;5223956;26;20262;-82
2024/04/17 14:13:02;;;;;;;1.83;0.82;;;18.70;56.20;;;;;;5274651;26;20253;-82
2024/04/17 14:15:30;;;;;;;2.97;0.70;;;18.70;55.70;;;;;;5272867;26;20227;-83
2024/04/17 14:18:54;;;;;;;4.43;0.73;;;18.70;56.00;;;;;;5302129;26;20229;-83
2024/04/17 14:21:01;;;;;;;3.50;0.80;;;18.70;55.80;;;;;;5213526;27;20280;-83
2024/04/17 14:23:29;;;;;;;4.97;0.85;;;18.70;56.40;;;;;;5219950;27;20237;-83
2024/04/17 14:26:06;;;;;;;1.65;0.60;;;18.70;56.00;;;;;;5193919;27;20269;-82
2024/04/17 14:28:37;;;;;;;4.93;0.85;;;18.70;55.90;;;;;;5170495;27;20252;-82
2024/04/17 14:31:07;;;;;;;7.05;1.00;;;18.70;55.90;;;;;;5170005;27;20294;-82
2024/04/17 14:33:37;;;;;;;4.00;0.80;;;18.70;56.00;;;;;;5169189;27;20252;-82
2024/04/17 14:36:07;;;;;;;1.83;0.90;;;18.70;55.60;;;;;;5140633;27;20723;-82
2024/04/17 14:38:33;;;;;;;2.95;0.90;;;18.70;56.00;;;;;;5163857;27;20300;-82
2024/04/17 14:41:04;;;;;;;2.85;0.65;;;18.70;55.90;;;;;;5141286;27;20744;-82
2024/04/17 14:43:31;;;;;;;3.70;0.70;;;18.70;55.80;;;;;;5143468;27;20268;-83
2024/04/17 14:46:03;;;;;;;4.18;0.85;;;18.70;55.90;;;;;;5140015;27;20226;-82
2024/04/17 14:48:39;;;;;;;5.70;0.90;;;18.70;56.00;;;;;;5143661;27;20234;-84
2024/04/17 14:51:18;;;;;;;0.90;0.60;;;18.70;55.80;;;;;;5171262;27;20231;-85
2024/04/17 14:54:09;;;;;;;2.22;1.05;;;18.70;55.40;;;;;;5204905;27;20228;-84
2024/04/17 14:56:52;;;;;;;2.20;0.70;;;18.70;55.40;;;;;;5158911;27;20228;-86
2024/04/17 15:02:32;;;;;;;4.18;0.90;;;18.70;55.10;;;;;;5078394;28;20234;-86
2024/04/17 15:05:35;;;;;;;;;;;;;;;;;;;;;
2024/04/17 15:08:13;;;;;;;4.32;0.85;;;18.80;55.10;;;;;;5064018;28;20238;-87
2024/04/17 15:11:02;;;;;;;4.68;0.60;;;18.80;55.20;;;;;;5034929;28;20265;-85
2024/04/17 15:13:28;;;;;;;2.42;0.70;;;18.80;55.20;;;;;;5009114;28;20247;-83
2024/04/17 15:16:02;;;;;;;4.28;0.88;;;18.80;54.90;;;;;;5009745;28;20231;-84
2024/04/17 15:18:32;;;;;;;2.50;0.95;;;18.80;55.60;;;;;;4987265;28;20274;-84
2024/04/17 15:21:09;;;;;;;3.65;1.10;;;18.90;55.80;;;;;;4985131;28;20238;-84
2024/04/17 15:23:41;;;;;;;4.63;0.98;;;18.80;55.80;;;;;;5061001;28;20242;-83
2024/04/17 15:26:11;;;;;;;1.48;0.70;;;18.80;55.80;;;;;;5033918;28;20614;-85
2024/04/17 15:28:44;;;;;;;2.75;0.75;;;18.80;55.90;;;;;;5090060;28;20253;-85
2024/04/17 15:31:22;;;;;;;2.60;0.90;;;18.90;55.00;;;;;;5072188;28;20233;-84
2024/04/17 15:33:53;;;;;;;4.95;1.00;;;18.80;54.70;;;;;;5130375;27;20242;-82
2024/04/17 15:36:25;;;;;;;10.35;1.10;;;18.90;55.50;;;;;;5164355;27;20630;-83
2024/04/17 15:39:01;;;;;;;5.93;0.57;;;18.90;55.60;;;;;;5156027;27;20236;-84
2024/04/17 15:41:29;;;;;;;3.03;0.70;;;18.90;55.20;;;;;;5152529;27;20310;-83
2024/04/17 15:43:56;;;;;;;2.90;0.70;;;18.90;55.50;;;;;;5099704;27;20700;-85
2024/04/17 15:46:28;;;;;;;15.18;1.50;;;18.90;55.30;;;;;;5119760;28;20264;-84
2024/04/17 15:49:02;;;;;;;3.97;1.02;;;18.90;55.30;;;;;;5158895;27;20280;-85
2024/04/17 15:51:31;;;;;;;2.50;0.80;;;18.90;55.10;;;;;;5162948;27;20240;-82
2024/04/17 15:54:41;;;;;;;3.20;0.73;;;18.90;55.20;;;;;;5196209;27;20241;-84
2024/04/17 15:57:00;;;;;;;2.78;0.90;;;19.00;55.40;;;;;;5192189;27;20309;-81
2024/04/17 15:59:50;;;;;;;2.67;0.90;;;18.90;55.00;;;;;;5180021;27;20329;-85
2024/04/17 16:02:44;;;;;;;3.38;0.80;;;19.00;55.10;;;;;;5106488;28;20714;-87
2024/04/17 16:05:38;;;;;;;3.05;1.00;;;19.00;55.20;;;;;;5055604;28;20281;-83
2024/04/17 16:08:56;;;;;;;3.30;0.65;;;18.90;55.30;;;;;;5057467;28;20294;-84
2024/04/17 16:12:24;;;;;;;5.78;0.90;;;18.90;54.80;;;;;;5036995;27;20311;-85
2024/04/17 16:15:22;;;;;;;;;;;;;;;;;;;;;
2024/04/17 16:22:43;;;;;;;;;;;;;;;;;;;;;
2024/04/17 16:26:26;;;;;;;1.52;0.73;;;18.90;55.20;;;;;;4861699;29;20244;-87
2024/04/17 16:29:08;;;;;;;2.55;0.70;;;18.90;54.60;;;;;;4845859;29;20396;-87
2024/04/17 16:31:38;;;;;;;2.17;0.65;;;19.00;55.00;;;;;;4842617;29;20273;-83
2024/04/17 16:38:18;;;;;;;4.75;0.73;;;19.00;55.10;;;;;;4824510;29;20280;-88
2024/04/17 17:25:06;;;;;;;13.02;1.65;;;19.00;55.90;;;;;;6476843;21;1584236;-83
2024/04/17 17:27:37;;;;;;;5.60;0.90;;;19.00;55.60;;;;;;6487173;22;20211;-84
2024/04/17 17:30:08;;;;;;;5.65;0.95;;;19.00;54.90;;;;;;6261638;22;20225;-84
2024/04/17 17:32:38;;;;;;;3.88;0.98;;;19.10;55.30;;;;;;6306928;22;20217;-84
2024/04/17 17:35:05;;;;;;;4.13;0.80;;;19.00;55.40;;;;;;6198661;23;20244;-84
2024/04/17 17:37:35;;;;;;;5.35;0.90;;;19.00;55.30;;;;;;6198588;23;20385;-84
2024/04/17 17:40:12;;;;;;;6.75;0.77;;;19.00;55.60;;;;;;6200049;23;20232;-83
2024/04/17 17:42:37;;;;;;;6.95;1.10;;;19.00;55.30;;;;;;6161959;23;20227;-83
2024/04/17 17:45:05;;;;;;;5.93;0.90;;;19.00;55.30;;;;;;6199569;23;20228;-84
2024/04/17 17:47:37;;;;;;;4.90;1.00;;;19.00;55.80;;;;;;6198750;23;20227;-84
2024/04/17 17:50:08;;;;;;;2.88;0.70;;;19.00;55.80;;;;;;6198097;23;20267;-82
2024/04/17 17:52:39;;;;;;;6.45;1.00;;;19.00;55.10;;;;;;6153673;23;20267;-84
2024/04/17 17:55:06;;;;;;;4.68;1.00;;;19.10;55.40;;;;;;6136543;23;20327;-83
2024/04/17 17:57:31;;;;;;;8.10;0.90;;;19.00;55.20;;;;;;6098765;23;20294;-83
2024/04/17 17:59:57;;;;;;;5.50;1.13;;;19.00;55.50;;;;;;6139233;23;20265;-83
2024/04/17 18:02:27;;;;;;;3.25;0.80;;;19.00;54.80;;;;;;6185355;23;20233;-84
2024/04/17 18:04:55;;;;;;;2.97;0.75;;;19.00;55.50;;;;;;6139980;23;20231;-83
2024/04/17 18:07:28;;;;;;;3.72;0.60;;;19.00;55.30;;;;;;6143946;23;20223;-83
2024/04/17 18:09:57;;;;;;;4.97;1.00;;;19.00;55.60;;;;;;6140842;23;20230;-85
2024/04/17 18:12:26;;;;;;;4.20;0.85;;;19.00;55.70;;;;;;6143879;23;20769;-86
2024/04/17 18:14:51;;;;;;;3.30;0.80;;;18.90;55.10;;;;;;6139667;23;20644;-84
2024/04/17 18:17:22;;;;;;;1.95;0.70;;;19.00;55.60;;;;;;6101911;23;20234;-84
2024/04/17 18:19:51;;;;;;;3.25;0.90;;;18.90;55.60;;;;;;6184142;22;20222;-84
2024/04/17 18:22:19;;;;;;;5.05;0.70;;;19.00;55.50;;;;;;6286739;22;20321;-83
2024/04/17 18:24:48;;;;;;;5.18;0.90;;;19.00;55.70;;;;;;6334691;22;20272;-83
2024/04/17 18:27:18;;;;;;;4.75;0.90;;;19.00;55.90;;;;;;6293328;22;20289;-84
2024/04/17 18:29:44;;;;;;;2.10;0.85;;;19.00;56.20;;;;;;6214467;22;20733;-83
2024/04/17 18:32:13;;;;;;;2.13;0.75;;;18.90;55.80;;;;;;6293027;22;20225;-83
2024/04/17 18:35:20;;;;;;;2.10;0.90;;;19.00;55.70;;;;;;6333280;22;20365;-83
2024/04/17 18:37:48;;;;;;;3.30;0.73;;;19.00;55.40;;;;;;6324482;22;20226;-82
2024/04/17 18:40:15;;;;;;;2.35;1.02;;;19.00;55.40;;;;;;6245443;22;20218;-83
2024/04/17 18:42:40;;;;;;;7.25;0.98;;;18.90;55.50;;;;;;6285308;22;20674;-83
2024/04/17 18:45:06;;;;;;;5.05;0.77;;;18.90;54.60;;;;;;6245384;22;20248;-83
2024/04/17 18:47:32;;;;;;;1.33;0.63;;;19.00;55.20;;;;;;6245159;22;20231;-83
2024/04/17 18:50:01;;;;;;;6.22;0.80;;;18.90;54.60;;;;;;6245577;22;20218;-83
2024/04/17 18:52:27;;;;;;;1.67;0.85;;;19.00;55.20;;;;;;6285183;22;20274;-84
2024/04/17 18:54:53;;;;;;;2.70;0.70;;;18.90;53.90;;;;;;6244367;22;20226;-83
2024/04/17 18:57:19;;;;;;;2.33;0.90;;;18.90;54.00;;;;;;6286653;22;20769;-84
2024/04/17 18:59:45;;;;;;;2.15;0.70;;;18.90;54.80;;;;;;6285256;22;20342;-84
2024/04/17 19:02:11;;;;;;;1.50;0.90;;;18.90;54.20;;;;;;6284686;22;20737;-82
2024/04/17 19:04:36;;;;;;;2.47;0.70;;;18.90;54.70;;;;;;6244633;22;20249;-81
2024/04/17 19:07:02;;;;;;;1.88;0.70;;;18.90;53.90;;;;;;6284950;22;20256;-83
2024/04/17 19:09:32;;;;;;;3.15;0.80;;;18.90;53.80;;;;;;6244923;22;20370;-83
2024/04/17 19:11:59;;;;;;;2.10;0.90;;;18.90;53.70;;;;;;6205932;22;20230;-83
2024/04/17 19:14:28;;;;;;;1.73;0.70;;;18.90;53.10;;;;;;6284559;22;20269;-83
2024/04/17 19:16:54;;;;;;;1.90;0.50;;;18.90;54.50;;;;;;6244219;22;20218;-83
2024/04/17 19:19:23;;;;;;;0.63;0.60;;;19.00;54.10;;;;;;6244410;22;20330;-84
2024/04/17 19:21:48;;;;;;;1.50;0.75;;;19.00;53.30;;;;;;6358228;22;20219;-83
2024/04/17 19:24:15;;;;;;;1.63;0.70;;;18.90;53.90;;;;;;6433170;22;20311;-83